sensor_id;sensor_type;location;lat;lon;timestamp;pressure;altitude;pressure_sealevel;temperature;humidity
5609;BME280;2826;51.354;9.588;2022-10-29T00:00:34;98763.66;;;14.88;100.00
5609;BME280;2826;51.354;9.588;2022-10-29T00:03:01;98769.69;;;14.90;100.00
5609;BME280;2826;51.354;9.588;2022-10-29T00:05:29;98764.47;;;14.90;100.00
5609;BME280;2826;51.354;9.588;2022-10-29T00:07:56;98768.91;;;14.88;100.00
5609;BME280;2826;51.354;9.588;2022-10-29T00:10:24;98771.56;;;14.86;100.00
5609;BME280;2826;51.354;9.588;2022-10-29T00:12:51;98776.97;;;14.83;100.00
5609;BME280;2826;51.354;9.588;2022-10-29T00:15:19;98773.69;;;14.78;100.00
5609;BME280;2826;51.354;9.588;2022-10-29T00:17:46;98774.63;;;14.77;100.00
5609;BME280;2826;51.354;9.588;2022-10-29T00:20:13;98781.72;;;14.73;100.00
5609;BME280;2826;51.354;9.588;2022-10-29T00:22:41;98777.50;;;14.71;100.00
5609;BME280;2826;51.354;9.588;2022-10-29T00:25:08;98775.88;;;14.68;100.00
5609;BME280;2826;51.354;9.588;2022-10-29T00:27:35;98772.47;;;14.66;100.00
5609;BME280;2826;51.354;9.588;2022-10-29T00:30:03;98777.88;;;14.63;100.00
5609;BME280;2826;51.354;9.588;2022-10-29T00:32:30;98781.19;;;14.67;100.00
5609;BME280;2826;51.354;9.588;2022-10-29T00:34:57;98782.09;;;14.66;100.00
5609;BME280;2826;51.354;9.588;2022-10-29T00:37:24;98776.94;;;14.64;100.00
5609;BME280;2826;51.354;9.588;2022-10-29T00:39:52;98787.31;;;14.66;100.00
5609;BME280;2826;51.354;9.588;2022-10-29T00:42:19;98779.50;;;14.66;100.00
5609;BME280;2826;51.354;9.588;2022-10-29T00:44:46;98776.09;;;14.63;100.00
5609;BME280;2826;51.354;9.588;2022-10-29T00:47:19;98788.16;;;14.66;100.00
5609;BME280;2826;51.354;9.588;2022-10-29T00:49:50;98768.81;;;14.51;100.00
5609;BME280;2826;51.354;9.588;2022-10-29T00:52:21;98795.16;;;14.66;100.00
5609;BME280;2826;51.354;9.588;2022-10-29T00:54:50;98802.31;;;14.60;100.00
5609;BME280;2826;51.354;9.588;2022-10-29T00:57:23;98811.00;;;14.61;100.00
5609;BME280;2826;51.354;9.588;2022-10-29T00:59:53;98799.94;;;14.56;100.00
5609;BME280;2826;51.354;9.588;2022-10-29T01:02:21;98792.97;;;14.56;100.00
5609;BME280;2826;51.354;9.588;2022-10-29T01:04:49;98798.25;;;14.55;100.00
5609;BME280;2826;51.354;9.588;2022-10-29T01:07:18;98792.25;;;14.53;100.00
5609;BME280;2826;51.354;9.588;2022-10-29T01:09:46;98798.38;;;14.52;100.00
5609;BME280;2826;51.354;9.588;2022-10-29T01:12:25;98797.47;;;14.53;100.00
5609;BME280;2826;51.354;9.588;2022-10-29T01:15:02;98796.53;;;14.54;100.00
5609;BME280;2826;51.354;9.588;2022-10-29T01:17:37;98794.78;;;14.54;100.00
5609;BME280;2826;51.354;9.588;2022-10-29T01:20:44;98796.63;;;14.52;100.00
5609;BME280;2826;51.354;9.588;2022-10-29T01:23:33;98786.09;;;14.54;100.00
5609;BME280;2826;51.354;9.588;2022-10-29T01:26:24;98788.81;;;14.52;100.00
5609;BME280;2826;51.354;9.588;2022-10-29T01:29:09;98792.38;;;14.49;100.00
5609;BME280;2826;51.354;9.588;2022-10-29T01:31:48;98800.28;;;14.48;100.00
5609;BME280;2826;51.354;9.588;2022-10-29T01:34:21;98792.53;;;14.46;100.00
5609;BME280;2826;51.354;9.588;2022-10-29T01:36:54;98793.47;;;14.45;100.00
5609;BME280;2826;51.354;9.588;2022-10-29T01:39:26;98781.38;;;14.43;100.00
5609;BME280;2826;51.354;9.588;2022-10-29T01:42:02;98772.03;;;14.39;100.00
5609;BME280;2826;51.354;9.588;2022-10-29T01:44:35;98778.19;;;14.36;100.00
5609;BME280;2826;51.354;9.588;2022-10-29T01:47:10;98779.19;;;14.33;100.00
5609;BME280;2826;51.354;9.588;2022-10-29T01:49:41;98767.53;;;14.21;100.00
5609;BME280;2826;51.354;9.588;2022-10-29T01:52:12;98786.25;;;14.31;100.00
5609;BME280;2826;51.354;9.588;2022-10-29T01:54:41;98787.88;;;14.34;100.00
5609;BME280;2826;51.354;9.588;2022-10-29T01:57:29;98778.28;;;14.34;100.00
5609;BME280;2826;51.354;9.588;2022-10-29T01:59:59;98768.34;;;14.23;100.00
5609;BME280;2826;51.354;9.588;2022-10-29T02:02:47;98769.03;;;14.27;100.00
5609;BME280;2826;51.354;9.588;2022-10-29T02:05:25;98772.16;;;14.35;100.00
5609;BME280;2826;51.354;9.588;2022-10-29T02:07:56;98769.59;;;14.34;100.00
5609;BME280;2826;51.354;9.588;2022-10-29T02:10:27;98771.53;;;14.30;100.00
5609;BME280;2826;51.354;9.588;2022-10-29T02:12:57;98785.44;;;14.29;100.00
5609;BME280;2826;51.354;9.588;2022-10-29T02:15:29;98782.09;;;14.27;100.00
5609;BME280;2826;51.354;9.588;2022-10-29T02:18:01;98768.13;;;14.28;100.00
5609;BME280;2826;51.354;9.588;2022-10-29T02:20:29;98778.56;;;14.28;100.00
5609;BME280;2826;51.354;9.588;2022-10-29T02:22:56;98777.78;;;14.26;100.00
5609;BME280;2826;51.354;9.588;2022-10-29T02:25:24;98744.84;;;14.04;100.00
5609;BME280;2826;51.354;9.588;2022-10-29T02:27:51;98769.31;;;14.21;100.00
5609;BME280;2826;51.354;9.588;2022-10-29T02:30:18;98738.72;;;14.05;100.00
5609;BME280;2826;51.354;9.588;2022-10-29T02:32:44;98757.34;;;14.17;100.00
5609;BME280;2826;51.354;9.588;2022-10-29T02:35:15;98754.00;;;14.13;100.00
5609;BME280;2826;51.354;9.588;2022-10-29T02:37:42;98747.31;;;14.07;100.00
5609;BME280;2826;51.354;9.588;2022-10-29T02:40:09;98746.53;;;14.05;100.00
5609;BME280;2826;51.354;9.588;2022-10-29T02:42:37;98734.66;;;13.98;100.00
5609;BME280;2826;51.354;9.588;2022-10-29T02:45:04;98743.41;;;13.97;100.00
5609;BME280;2826;51.354;9.588;2022-10-29T02:47:31;98741.84;;;13.93;100.00
5609;BME280;2826;51.354;9.588;2022-10-29T02:49:57;98743.75;;;13.89;100.00
5609;BME280;2826;51.354;9.588;2022-10-29T02:52:25;98752.56;;;13.87;100.00
5609;BME280;2826;51.354;9.588;2022-10-29T02:54:52;98761.31;;;13.85;100.00
5609;BME280;2826;51.354;9.588;2022-10-29T02:57:19;98753.69;;;13.81;100.00
5609;BME280;2826;51.354;9.588;2022-10-29T02:59:46;98732.53;;;13.68;100.00
5609;BME280;2826;51.354;9.588;2022-10-29T03:02:13;98753.63;;;13.82;100.00
5609;BME280;2826;51.354;9.588;2022-10-29T03:04:40;98761.44;;;13.82;100.00
5609;BME280;2826;51.354;9.588;2022-10-29T03:07:09;98742.66;;;13.74;100.00
5609;BME280;2826;51.354;9.588;2022-10-29T03:09:37;98756.91;;;13.86;100.00
5609;BME280;2826;51.354;9.588;2022-10-29T03:12:04;98760.38;;;13.87;100.00
5609;BME280;2826;51.354;9.588;2022-10-29T03:14:31;98763.84;;;13.87;100.00
5609;BME280;2826;51.354;9.588;2022-10-29T03:16:58;98767.28;;;13.88;100.00
5609;BME280;2826;51.354;9.588;2022-10-29T03:19:25;98776.03;;;13.87;100.00
5609;BME280;2826;51.354;9.588;2022-10-29T03:21:51;98774.19;;;13.89;100.00
5609;BME280;2826;51.354;9.588;2022-10-29T03:24:18;98770.81;;;13.87;100.00
5609;BME280;2826;51.354;9.588;2022-10-29T03:26:47;98771.78;;;13.84;100.00
5609;BME280;2826;51.354;9.588;2022-10-29T03:29:13;98769.25;;;13.82;100.00
5609;BME280;2826;51.354;9.588;2022-10-29T03:31:40;98775.31;;;13.83;100.00
5609;BME280;2826;51.354;9.588;2022-10-29T03:34:07;98775.38;;;13.81;100.00
5609;BME280;2826;51.354;9.588;2022-10-29T03:36:34;98771.09;;;13.80;100.00
5609;BME280;2826;51.354;9.588;2022-10-29T03:39:01;98777.13;;;13.81;100.00
5609;BME280;2826;51.354;9.588;2022-10-29T03:41:28;98776.31;;;13.80;100.00
5609;BME280;2826;51.354;9.588;2022-10-29T03:43:56;98772.84;;;13.80;100.00
5609;BME280;2826;51.354;9.588;2022-10-29T03:46:23;98766.78;;;13.79;100.00
5609;BME280;2826;51.354;9.588;2022-10-29T03:48:50;98771.09;;;13.80;100.00
5609;BME280;2826;51.354;9.588;2022-10-29T03:51:16;98771.09;;;13.80;100.00
5609;BME280;2826;51.354;9.588;2022-10-29T03:53:43;98774.59;;;13.79;100.00
5609;BME280;2826;51.354;9.588;2022-10-29T03:56:10;98772.03;;;13.78;100.00
5609;BME280;2826;51.354;9.588;2022-10-29T03:58:37;98771.34;;;13.74;100.00
5609;BME280;2826;51.354;9.588;2022-10-29T04:01:06;98768.84;;;13.71;100.00
5609;BME280;2826;51.354;9.588;2022-10-29T04:03:35;98759.41;;;13.68;100.00
5609;BME280;2826;51.354;9.588;2022-10-29T04:06:09;98760.38;;;13.66;100.00
5609;BME280;2826;51.354;9.588;2022-10-29T04:08:36;98743.75;;;13.49;100.00
5609;BME280;2826;51.354;9.588;2022-10-29T04:11:04;98754.47;;;13.62;100.00
5609;BME280;2826;51.354;9.588;2022-10-29T04:13:32;98754.53;;;13.61;100.00
5609;BME280;2826;51.354;9.588;2022-10-29T04:15:59;98753.72;;;13.60;100.00
5609;BME280;2826;51.354;9.588;2022-10-29T04:18:27;98755.47;;;13.59;100.00
5609;BME280;2826;51.354;9.588;2022-10-29T04:20:58;98751.00;;;13.62;100.00
5609;BME280;2826;51.354;9.588;2022-10-29T04:23:25;98757.94;;;13.63;100.00
5609;BME280;2826;51.354;9.588;2022-10-29T04:25:55;98749.31;;;13.61;100.00
5609;BME280;2826;51.354;9.588;2022-10-29T04:28:23;98757.94;;;13.63;100.00
5609;BME280;2826;51.354;9.588;2022-10-29T04:30:50;98763.00;;;13.66;100.00
5609;BME280;2826;51.354;9.588;2022-10-29T04:33:17;98760.34;;;13.67;100.00
5609;BME280;2826;51.354;9.588;2022-10-29T04:35:51;98760.28;;;13.69;100.00
5609;BME280;2826;51.354;9.588;2022-10-29T04:38:19;98766.34;;;13.69;100.00
5609;BME280;2826;51.354;9.588;2022-10-29T04:40:46;98769.78;;;13.70;100.00
5609;BME280;2826;51.354;9.588;2022-10-29T04:43:13;98768.09;;;13.69;100.00
5609;BME280;2826;51.354;9.588;2022-10-29T04:45:40;98760.28;;;13.69;100.00
5609;BME280;2826;51.354;9.588;2022-10-29T04:48:07;98764.72;;;13.67;100.00
5609;BME280;2826;51.354;9.588;2022-10-29T04:50:36;98769.94;;;13.67;100.00
5609;BME280;2826;51.354;9.588;2022-10-29T04:53:05;98763.97;;;13.63;100.00
5609;BME280;2826;51.354;9.588;2022-10-29T04:55:35;98750.56;;;13.52;100.00
5609;BME280;2826;51.354;9.588;2022-10-29T04:58:03;98737.75;;;13.45;100.00
5609;BME280;2826;51.354;9.588;2022-10-29T05:00:30;98752.25;;;13.53;100.00
5609;BME280;2826;51.354;9.588;2022-10-29T05:02:57;98756.78;;;13.49;100.00
5609;BME280;2826;51.354;9.588;2022-10-29T05:05:24;98761.06;;;13.50;100.00
5609;BME280;2826;51.354;9.588;2022-10-29T05:07:55;98757.69;;;13.46;100.00
5609;BME280;2826;51.354;9.588;2022-10-29T05:10:25;98755.22;;;13.43;100.00
5609;BME280;2826;51.354;9.588;2022-10-29T05:12:56;98756.22;;;13.41;100.00
5609;BME280;2826;51.354;9.588;2022-10-29T05:15:23;98749.28;;;13.40;100.00
5609;BME280;2826;51.354;9.588;2022-10-29T05:17:50;98750.25;;;13.37;100.00
5609;BME280;2826;51.354;9.588;2022-10-29T05:20:16;98758.00;;;13.39;100.00
5609;BME280;2826;51.354;9.588;2022-10-29T05:22:43;98758.94;;;13.38;100.00
5609;BME280;2826;51.354;9.588;2022-10-29T05:25:10;98750.34;;;13.36;100.00
5609;BME280;2826;51.354;9.588;2022-10-29T05:27:39;98745.97;;;13.36;100.00
5609;BME280;2826;51.354;9.588;2022-10-29T05:30:06;98746.03;;;13.35;100.00
5609;BME280;2826;51.354;9.588;2022-10-29T05:32:33;98720.53;;;13.22;100.00
5609;BME280;2826;51.354;9.588;2022-10-29T05:35:00;98739.47;;;13.26;100.00
5609;BME280;2826;51.354;9.588;2022-10-29T05:37:27;98740.56;;;13.20;100.00
5609;BME280;2826;51.354;9.588;2022-10-29T05:39:54;98738.22;;;13.14;100.00
5609;BME280;2826;51.354;9.588;2022-10-29T05:42:21;98743.59;;;13.09;100.00
5609;BME280;2826;51.354;9.588;2022-10-29T05:44:49;98749.06;;;13.03;100.00
5609;BME280;2826;51.354;9.588;2022-10-29T05:47:16;98745.81;;;12.98;100.00
5609;BME280;2826;51.354;9.588;2022-10-29T05:49:43;98742.41;;;12.96;100.00
5609;BME280;2826;51.354;9.588;2022-10-29T05:52:10;98740.81;;;12.91;100.00
5609;BME280;2826;51.354;9.588;2022-10-29T05:54:37;98740.13;;;12.88;100.00
5609;BME280;2826;51.354;9.588;2022-10-29T05:57:03;98742.00;;;12.84;100.00
5609;BME280;2826;51.354;9.588;2022-10-29T05:59:30;98742.94;;;12.81;100.00
5609;BME280;2826;51.354;9.588;2022-10-29T06:01:59;98745.63;;;12.80;100.00
5609;BME280;2826;51.354;9.588;2022-10-29T06:04:26;98737.06;;;12.76;100.00
5609;BME280;2826;51.354;9.588;2022-10-29T06:06:52;98744.94;;;12.75;100.00
5609;BME280;2826;51.354;9.588;2022-10-29T06:09:19;98744.94;;;12.75;100.00
5609;BME280;2826;51.354;9.588;2022-10-29T06:11:46;98742.44;;;12.73;100.00
5609;BME280;2826;51.354;9.588;2022-10-29T06:14:13;98743.25;;;12.74;100.00
5609;BME280;2826;51.354;9.588;2022-10-29T06:16:40;98746.72;;;12.74;100.00
5609;BME280;2826;51.354;9.588;2022-10-29T06:19:08;98739.72;;;12.75;100.00
5609;BME280;2826;51.354;9.588;2022-10-29T06:21:35;98742.16;;;12.79;100.00
5609;BME280;2826;51.354;9.588;2022-10-29T06:24:02;98735.13;;;12.81;100.00
5609;BME280;2826;51.354;9.588;2022-10-29T06:26:29;98734.25;;;12.83;100.00
5609;BME280;2826;51.354;9.588;2022-10-29T06:28:56;98735.88;;;12.85;100.00
5609;BME280;2826;51.354;9.588;2022-10-29T06:31:23;98739.19;;;12.89;100.00
5609;BME280;2826;51.354;9.588;2022-10-29T06:33:50;98735.56;;;12.93;100.00
5609;BME280;2826;51.354;9.588;2022-10-29T06:36:18;98736.28;;;12.97;100.00
5609;BME280;2826;51.354;9.588;2022-10-29T06:38:45;98729.13;;;13.02;100.00
5609;BME280;2826;51.354;9.588;2022-10-29T06:41:12;98722.88;;;13.06;100.00
5609;BME280;2826;51.354;9.588;2022-10-29T06:43:39;98731.38;;;13.11;100.00
5609;BME280;2826;51.354;9.588;2022-10-29T06:46:06;98726.81;;;13.16;100.00
5609;BME280;2826;51.354;9.588;2022-10-29T06:48:33;98731.81;;;13.21;100.00
5609;BME280;2826;51.354;9.588;2022-10-29T06:51:00;98729.88;;;13.26;100.00
5609;BME280;2826;51.354;9.588;2022-10-29T06:53:28;98734.03;;;13.30;100.00
5609;BME280;2826;51.354;9.588;2022-10-29T06:55:57;98729.50;;;13.36;100.00
5609;BME280;2826;51.354;9.588;2022-10-29T06:58:24;98718.88;;;13.40;100.00
5609;BME280;2826;51.354;9.588;2022-10-29T07:00:51;98724.78;;;13.44;100.00
5609;BME280;2826;51.354;9.588;2022-10-29T07:03:19;98724.66;;;13.49;100.00
5609;BME280;2826;51.354;9.588;2022-10-29T07:05:46;98729.66;;;13.53;100.00
5609;BME280;2826;51.354;9.588;2022-10-29T07:08:13;98735.59;;;13.57;100.00
5609;BME280;2826;51.354;9.588;2022-10-29T07:10:41;98733.63;;;13.62;100.00
5609;BME280;2826;51.354;9.588;2022-10-29T07:13:08;98730.03;;;13.65;100.00
5609;BME280;2826;51.354;9.588;2022-10-29T07:15:36;98734.22;;;13.69;100.00
5609;BME280;2826;51.354;9.588;2022-10-29T07:18:04;98726.50;;;13.66;100.00
5609;BME280;2826;51.354;9.588;2022-10-29T07:20:33;98728.22;;;13.67;100.00
5609;BME280;2826;51.354;9.588;2022-10-29T07:23:02;98730.44;;;13.76;100.00
5609;BME280;2826;51.354;9.588;2022-10-29T07:25:29;98717.31;;;13.78;100.00
5609;BME280;2826;51.354;9.588;2022-10-29T07:28:03;98733.75;;;13.80;100.00
5609;BME280;2826;51.354;9.588;2022-10-29T07:30:31;98731.91;;;13.82;100.00
5609;BME280;2826;51.354;9.588;2022-10-29T07:32:58;98731.00;;;13.83;100.00
5609;BME280;2826;51.354;9.588;2022-10-29T07:35:26;98738.47;;;13.91;100.00
5609;BME280;2826;51.354;9.588;2022-10-29T07:37:57;98740.81;;;13.97;100.00
5609;BME280;2826;51.354;9.588;2022-10-29T07:40:24;98750.00;;;14.06;100.00
5609;BME280;2826;51.354;9.588;2022-10-29T07:42:50;98747.81;;;14.16;100.00
5609;BME280;2826;51.354;9.588;2022-10-29T07:45:19;98754.31;;;14.26;100.00
5609;BME280;2826;51.354;9.588;2022-10-29T07:47:46;98750.41;;;14.35;100.00
5609;BME280;2826;51.354;9.588;2022-10-29T07:50:14;98768.06;;;14.49;100.00
5609;BME280;2826;51.354;9.588;2022-10-29T07:52:41;98765.72;;;14.62;100.00
5609;BME280;2826;51.354;9.588;2022-10-29T07:55:08;98776.09;;;14.63;100.00
5609;BME280;2826;51.354;9.588;2022-10-29T07:57:35;98772.72;;;14.61;100.00
5609;BME280;2826;51.354;9.588;2022-10-29T08:00:02;98773.47;;;14.63;100.00
5609;BME280;2826;51.354;9.588;2022-10-29T08:03:00;98764.53;;;14.69;100.00
5609;BME280;2826;51.354;9.588;2022-10-29T08:05:29;98764.19;;;14.77;100.00
5609;BME280;2826;51.354;9.588;2022-10-29T08:07:56;98777.72;;;14.85;100.00
5609;BME280;2826;51.354;9.588;2022-10-29T08:10:24;98776.59;;;14.91;100.00
5609;BME280;2826;51.354;9.588;2022-10-29T08:12:53;98771.44;;;14.89;100.00
5609;BME280;2826;51.354;9.588;2022-10-29T08:15:20;98765.28;;;14.91;100.00
5609;BME280;2826;51.354;9.588;2022-10-29T08:17:48;98764.91;;;14.98;100.00
5609;BME280;2826;51.354;9.588;2022-10-29T08:20:18;98767.94;;;15.08;100.00
5609;BME280;2826;51.354;9.588;2022-10-29T08:22:45;98760.72;;;15.13;100.00
5609;BME280;2826;51.354;9.588;2022-10-29T08:25:13;98758.72;;;15.19;100.00
5609;BME280;2826;51.354;9.588;2022-10-29T08:27:40;98706.91;;;14.92;100.00
5609;BME280;2826;51.354;9.588;2022-10-29T08:30:10;98747.13;;;15.24;100.00
5609;BME280;2826;51.354;9.588;2022-10-29T08:32:43;98737.28;;;15.29;100.00
5609;BME280;2826;51.354;9.588;2022-10-29T08:35:11;98743.81;;;15.38;100.00
5609;BME280;2826;51.354;9.588;2022-10-29T08:37:41;98733.06;;;15.45;100.00
5609;BME280;2826;51.354;9.588;2022-10-29T08:40:12;98727.59;;;15.49;100.00
5609;BME280;2826;51.354;9.588;2022-10-29T08:42:55;98735.03;;;15.57;100.00
5609;BME280;2826;51.354;9.588;2022-10-29T08:45:29;98735.56;;;15.64;100.00
5609;BME280;2826;51.354;9.588;2022-10-29T08:48:11;98732.56;;;15.72;100.00
5609;BME280;2826;51.354;9.588;2022-10-29T08:50:49;98740.63;;;15.85;100.00
5609;BME280;2826;51.354;9.588;2022-10-29T08:53:22;98741.91;;;15.93;100.00
5609;BME280;2826;51.354;9.588;2022-10-29T08:55:50;98748.63;;;15.99;99.55
5609;BME280;2826;51.354;9.588;2022-10-29T08:58:22;98731.59;;;15.90;99.51
5609;BME280;2826;51.354;9.588;2022-10-29T09:00:55;98756.69;;;15.94;98.43
5609;BME280;2826;51.354;9.588;2022-10-29T09:03:23;98763.06;;;16.06;99.33
5609;BME280;2826;51.354;9.588;2022-10-29T09:05:59;98756.91;;;16.08;99.34
5609;BME280;2826;51.354;9.588;2022-10-29T09:08:42;98743.31;;;16.17;98.78
5609;BME280;2826;51.354;9.588;2022-10-29T09:11:24;98745.97;;;16.33;98.51
5609;BME280;2826;51.354;9.588;2022-10-29T09:14:02;98749.44;;;16.50;97.83
5609;BME280;2826;51.354;9.588;2022-10-29T09:16:40;98752.47;;;16.58;95.95
5609;BME280;2826;51.354;9.588;2022-10-29T09:19:22;98753.31;;;16.58;95.65
5609;BME280;2826;51.354;9.588;2022-10-29T09:21:58;98771.63;;;16.58;95.35
5609;BME280;2826;51.354;9.588;2022-10-29T09:24:34;98765.56;;;16.58;95.12
5609;BME280;2826;51.354;9.588;2022-10-29T09:27:12;98768.44;;;16.69;95.00
5609;BME280;2826;51.354;9.588;2022-10-29T09:29:50;98762.59;;;16.80;93.90
5609;BME280;2826;51.354;9.588;2022-10-29T09:32:24;98763.88;;;16.89;93.22
5609;BME280;2826;51.354;9.588;2022-10-29T09:34:55;98751.06;;;16.99;92.87
5609;BME280;2826;51.354;9.588;2022-10-29T09:37:32;98750.81;;;17.04;92.22
5609;BME280;2826;51.354;9.588;2022-10-29T09:40:04;98689.63;;;16.74;91.35
5609;BME280;2826;51.354;9.588;2022-10-29T09:42:35;98751.19;;;17.14;90.61
5609;BME280;2826;51.354;9.588;2022-10-29T09:45:05;98756.66;;;17.09;89.46
5609;BME280;2826;51.354;9.588;2022-10-29T09:47:37;98754.53;;;17.00;89.38
5609;BME280;2826;51.354;9.588;2022-10-29T09:50:17;98750.94;;;16.86;90.53
5609;BME280;2826;51.354;9.588;2022-10-29T09:52:47;98749.06;;;16.88;90.98
5609;BME280;2826;51.354;9.588;2022-10-29T09:55:19;98750.25;;;16.98;91.73
5609;BME280;2826;51.354;9.588;2022-10-29T09:57:48;98732.56;;;17.02;91.61
5609;BME280;2826;51.354;9.588;2022-10-29T10:00:18;98743.28;;;17.30;90.99
5609;BME280;2826;51.354;9.588;2022-10-29T10:02:49;98743.47;;;17.41;89.63
5609;BME280;2826;51.354;9.588;2022-10-29T10:05:24;98733.19;;;17.53;89.99
5609;BME280;2826;51.354;9.588;2022-10-29T10:08:09;98737.03;;;17.61;89.12
5609;BME280;2826;51.354;9.588;2022-10-29T10:10:50;98741.38;;;17.77;89.36
5609;BME280;2826;51.354;9.588;2022-10-29T10:13:19;98738.28;;;17.85;87.43
5609;BME280;2826;51.354;9.588;2022-10-29T10:15:49;98729.94;;;17.93;86.94
5609;BME280;2826;51.354;9.588;2022-10-29T10:18:20;98731.16;;;18.01;86.57
5609;BME280;2826;51.354;9.588;2022-10-29T10:20:59;98723.13;;;18.19;86.13
5609;BME280;2826;51.354;9.588;2022-10-29T10:23:39;98724.22;;;18.30;85.03
5609;BME280;2826;51.354;9.588;2022-10-29T10:26:32;98719.63;;;18.33;81.97
5609;BME280;2826;51.354;9.588;2022-10-29T10:29:14;98700.41;;;18.18;81.20
5609;BME280;2826;51.354;9.588;2022-10-29T10:31:42;98712.41;;;18.22;81.64
5609;BME280;2826;51.354;9.588;2022-10-29T10:34:17;98708.50;;;18.15;81.58
5609;BME280;2826;51.354;9.588;2022-10-29T10:36:49;98712.81;;;18.16;82.55
5609;BME280;2826;51.354;9.588;2022-10-29T10:39:21;98712.41;;;18.22;82.28
5609;BME280;2826;51.354;9.588;2022-10-29T10:41:50;98703.13;;;18.31;82.19
5609;BME280;2826;51.354;9.588;2022-10-29T10:44:18;98703.41;;;18.41;81.64
5609;BME280;2826;51.354;9.588;2022-10-29T10:46:46;98701.00;;;18.51;80.25
5609;BME280;2826;51.354;9.588;2022-10-29T10:49:16;98698.13;;;18.68;80.72
5609;BME280;2826;51.354;9.588;2022-10-29T10:51:48;98695.59;;;18.94;80.02
5609;BME280;2826;51.354;9.588;2022-10-29T10:54:26;98705.00;;;19.12;78.97
5609;BME280;2826;51.354;9.588;2022-10-29T10:57:00;98704.19;;;19.24;77.69
5609;BME280;2826;51.354;9.588;2022-10-29T10:59:38;98706.84;;;19.37;76.75
5609;BME280;2826;51.354;9.588;2022-10-29T11:02:16;98698.97;;;19.37;75.60
5609;BME280;2826;51.354;9.588;2022-10-29T11:04:50;98700.22;;;19.31;75.90
5609;BME280;2826;51.354;9.588;2022-10-29T11:07:22;98694.09;;;19.18;75.91
5609;BME280;2826;51.354;9.588;2022-10-29T11:09:53;98682.50;;;19.08;76.09
5609;BME280;2826;51.354;9.588;2022-10-29T11:12:27;98681.41;;;18.97;76.57
5609;BME280;2826;51.354;9.588;2022-10-29T11:14:59;98681.72;;;18.92;76.85
5609;BME280;2826;51.354;9.588;2022-10-29T11:17:37;98679.16;;;18.78;76.83
5609;BME280;2826;51.354;9.588;2022-10-29T11:20:12;98677.56;;;18.75;77.71
5609;BME280;2826;51.354;9.588;2022-10-29T11:22:51;98670.22;;;18.80;78.35
5609;BME280;2826;51.354;9.588;2022-10-29T11:25:23;98676.69;;;19.02;77.44
5609;BME280;2826;51.354;9.588;2022-10-29T11:27:59;98679.38;;;19.28;76.50
5609;BME280;2826;51.354;9.588;2022-10-29T11:30:33;98675.06;;;19.40;75.36
5609;BME280;2826;51.354;9.588;2022-10-29T11:33:10;98679.28;;;19.56;75.34
5609;BME280;2826;51.354;9.588;2022-10-29T11:35:43;98675.06;;;19.66;74.82
5609;BME280;2826;51.354;9.588;2022-10-29T11:38:16;98674.63;;;19.72;73.71
5609;BME280;2826;51.354;9.588;2022-10-29T11:40:48;98670.53;;;19.81;73.31
5609;BME280;2826;51.354;9.588;2022-10-29T11:43:19;98657.97;;;19.85;72.29
5609;BME280;2826;51.354;9.588;2022-10-29T11:45:56;98656.41;;;19.82;71.11
5609;BME280;2826;51.354;9.588;2022-10-29T11:48:35;98656.63;;;19.79;71.66
5609;BME280;2826;51.354;9.588;2022-10-29T11:51:14;98655.03;;;19.90;70.94
5609;BME280;2826;51.354;9.588;2022-10-29T11:53:58;98652.63;;;19.87;70.53
5609;BME280;2826;51.354;9.588;2022-10-29T11:56:38;98650.00;;;19.87;70.35
5609;BME280;2826;51.354;9.588;2022-10-29T11:59:20;98644.31;;;19.80;70.24
5609;BME280;2826;51.354;9.588;2022-10-29T12:01:55;98648.44;;;19.71;70.91
5609;BME280;2826;51.354;9.588;2022-10-29T12:04:26;98650.34;;;19.56;71.07
5609;BME280;2826;51.354;9.588;2022-10-29T12:07:03;98649.81;;;19.38;71.97
5609;BME280;2826;51.354;9.588;2022-10-29T12:12:36;98651.19;;;19.17;74.10
5609;BME280;2826;51.354;9.588;2022-10-29T12:15:14;98639.53;;;19.09;74.64
5609;BME280;2826;51.354;9.588;2022-10-29T12:17:50;98640.75;;;19.03;74.19
5609;BME280;2826;51.354;9.588;2022-10-29T12:20:33;98631.47;;;18.97;74.67
5609;BME280;2826;51.354;9.588;2022-10-29T12:23:09;98628.66;;;19.00;74.86
5609;BME280;2826;51.354;9.588;2022-10-29T12:25:50;98628.31;;;18.92;75.66
5609;BME280;2826;51.354;9.588;2022-10-29T12:28:24;98622.44;;;18.88;75.72
5609;BME280;2826;51.354;9.588;2022-10-29T12:31:07;98621.78;;;18.85;76.79
5609;BME280;2826;51.354;9.588;2022-10-29T12:33:47;98620.09;;;18.84;77.11
5609;BME280;2826;51.354;9.588;2022-10-29T12:36:20;98617.47;;;18.84;76.89
5609;BME280;2826;51.354;9.588;2022-10-29T12:38:54;98608.66;;;18.85;76.75
5609;BME280;2826;51.354;9.588;2022-10-29T12:41:23;98606.97;;;18.84;76.66
5609;BME280;2826;51.354;9.588;2022-10-29T12:43:59;98613.19;;;18.83;76.93
5609;BME280;2826;51.354;9.588;2022-10-29T12:46:34;98607.16;;;18.80;77.60
5609;BME280;2826;51.354;9.588;2022-10-29T12:49:10;98615.47;;;18.87;77.23
5609;BME280;2826;51.354;9.588;2022-10-29T12:51:44;98615.19;;;18.92;76.70
5609;BME280;2826;51.354;9.588;2022-10-29T12:54:29;98608.78;;;18.96;76.85
5609;BME280;2826;51.354;9.588;2022-10-29T12:57:03;98615.41;;;19.02;76.70
5609;BME280;2826;51.354;9.588;2022-10-29T12:59:32;98608.34;;;19.02;76.32
5609;BME280;2826;51.354;9.588;2022-10-29T13:02:43;98611.44;;;19.09;75.75
5609;BME280;2826;51.354;9.588;2022-10-29T13:05:19;98617.34;;;19.13;76.08
5609;BME280;2826;51.354;9.588;2022-10-29T13:10:55;98605.66;;;19.17;75.42
5609;BME280;2826;51.354;9.588;2022-10-29T13:13:37;98611.97;;;19.27;75.76
5609;BME280;2826;51.354;9.588;2022-10-29T13:16:14;98612.81;;;19.28;75.38
5609;BME280;2826;51.354;9.588;2022-10-29T13:18:50;98608.38;;;19.41;75.22
5609;BME280;2826;51.354;9.588;2022-10-29T13:21:57;98615.06;;;19.71;74.81
5609;BME280;2826;51.354;9.588;2022-10-29T13:24:25;98604.31;;;20.01;73.33
5609;BME280;2826;51.354;9.588;2022-10-29T13:26:58;98611.25;;;20.26;72.53
5609;BME280;2826;51.354;9.588;2022-10-29T13:29:43;98600.75;;;20.37;72.18
5609;BME280;2826;51.354;9.588;2022-10-29T13:32:28;98609.56;;;20.49;71.24
5609;BME280;2826;51.354;9.588;2022-10-29T13:34:58;98613.81;;;20.39;70.36
5609;BME280;2826;51.354;9.588;2022-10-29T13:38:03;98620.72;;;20.29;70.61
5609;BME280;2826;51.354;9.588;2022-10-29T13:43:31;98621.31;;;20.08;70.53
5609;BME280;2826;51.354;9.588;2022-10-29T13:46:25;98614.63;;;19.91;70.89